Time;durP1;ratioP1;P1;durP2;ratioP2;P2;SDS_P1;SDS_P2;PMS_P1;PMS_P2;Temp;Humidity;BMP_temperature;BMP_pressure;BME280_temperature;BME280_humidity;BME280_pressure;Samples;Min_cycle;Max_cycle;Signal;HPM_P1;HPM_P2
2022/12/12 00:01:40;;;;;;;9.82;9.43;;;;;;;;;;5054081;28;20472;-62
2022/12/12 00:04:06;;;;;;;10.27;9.77;;;;;;;;;;5060545;28;20116;-62
2022/12/12 00:06:31;;;;;;;10.10;9.60;;;;;;;;;;5057726;28;20524;-63
2022/12/12 00:08:57;;;;;;;10.63;10.13;;;;;;;;;;5059702;28;20503;-63
2022/12/12 00:11:23;;;;;;;9.88;9.40;;;;;;;;;;5064745;28;20025;-64
2022/12/12 00:13:48;;;;;;;10.30;9.80;;;;;;;;;;5058776;28;20059;-63
2022/12/12 00:16:14;;;;;;;9.52;9.13;;;;;;;;;;5063529;28;20382;-62
2022/12/12 00:18:39;;;;;;;10.05;9.55;;;;;;;;;;5056885;28;20017;-62
2022/12/12 00:21:06;;;;;;;10.00;9.50;;;;;;;;;;5055246;28;20507;-62
2022/12/12 00:23:32;;;;;;;10.38;9.88;;;;;;;;;;5061980;28;20017;-64
2022/12/12 00:26:03;;;;;;;9.77;9.32;;;;;;;;;;5058163;28;20071;-62
2022/12/12 00:28:28;;;;;;;9.60;9.20;;;;;;;;;;5049627;28;20070;-63
2022/12/12 00:30:54;;;;;;;10.00;9.50;;;;;;;;;;5055813;28;20112;-63
2022/12/12 00:33:19;;;;;;;10.07;9.57;;;;;;;;;;5060891;28;20108;-62
2022/12/12 00:35:47;;;;;;;9.90;9.40;;;;;;;;;;5061053;28;20070;-62
2022/12/12 00:38:13;;;;;;;10.05;9.55;;;;;;;;;;5058366;28;20029;-62
2022/12/12 00:40:38;;;;;;;9.90;9.40;;;;;;;;;;5064033;28;20479;-63
2022/12/12 00:43:03;;;;;;;9.82;9.35;;;;;;;;;;5061929;28;20142;-63
2022/12/12 00:45:29;;;;;;;9.68;9.23;;;;;;;;;;5058663;28;20039;-63
2022/12/12 00:47:54;;;;;;;9.90;9.40;;;;;;;;;;5057510;28;20025;-63
2022/12/12 00:50:20;;;;;;;9.40;9.00;;;;;;;;;;5056929;28;20021;-62
2022/12/12 00:52:45;;;;;;;9.70;9.30;;;;;;;;;;5058908;28;20044;-63
2022/12/12 00:55:11;;;;;;;9.43;9.02;;;;;;;;;;5054173;28;20354;-62
2022/12/12 00:57:36;;;;;;;9.73;9.27;;;;;;;;;;5065146;28;20032;-62
2022/12/12 01:00:03;;;;;;;10.05;9.55;;;;;;;;;;5065565;28;20511;-62
2022/12/12 01:02:29;;;;;;;9.80;9.30;;;;;;;;;;5056185;28;20013;-62
2022/12/12 01:04:54;;;;;;;9.73;9.30;;;;;;;;;;5054818;28;20074;-62
2022/12/12 01:07:19;;;;;;;9.93;9.43;;;;;;;;;;5054412;28;20056;-63
2022/12/12 01:09:45;;;;;;;10.13;9.63;;;;;;;;;;5058672;28;20052;-63
2022/12/12 01:12:10;;;;;;;9.45;9.05;;;;;;;;;;5053549;28;20025;-62
2022/12/12 01:14:35;;;;;;;10.20;9.70;;;;;;;;;;5055713;28;20062;-62
2022/12/12 01:17:00;;;;;;;10.15;9.65;;;;;;;;;;5053970;28;20025;-62
2022/12/12 01:19:26;;;;;;;10.02;9.52;;;;;;;;;;5059485;28;20086;-62
2022/12/12 01:21:51;;;;;;;10.23;9.73;;;;;;;;;;5055384;28;20052;-64
2022/12/12 01:24:16;;;;;;;10.45;9.95;;;;;;;;;;5065306;28;20103;-63
2022/12/12 01:26:42;;;;;;;10.00;9.50;;;;;;;;;;5058195;28;20353;-62
2022/12/12 01:29:07;;;;;;;9.95;9.45;;;;;;;;;;5058596;28;20024;-63
2022/12/12 01:31:33;;;;;;;10.13;9.63;;;;;;;;;;5055144;28;20021;-63
2022/12/12 01:33:58;;;;;;;10.13;9.63;;;;;;;;;;5055219;28;20018;-62
2022/12/12 01:36:23;;;;;;;9.82;9.32;;;;;;;;;;5055678;28;20107;-62
2022/12/12 01:38:51;;;;;;;10.20;9.70;;;;;;;;;;5060787;28;20044;-62
2022/12/12 01:41:17;;;;;;;9.60;9.20;;;;;;;;;;5059052;28;20028;-62
2022/12/12 01:43:43;;;;;;;10.32;9.82;;;;;;;;;;5052185;28;20052;-62
2022/12/12 01:46:20;;;;;;;10.25;9.75;;;;;;;;;;5059380;28;20098;-62
2022/12/12 01:48:51;;;;;;;9.70;9.25;;;;;;;;;;5052586;28;20017;-62
2022/12/12 01:51:18;;;;;;;10.32;9.82;;;;;;;;;;5058182;28;20032;-63
2022/12/12 01:53:44;;;;;;;10.25;9.75;;;;;;;;;;5062253;28;20488;-62
2022/12/12 01:56:13;;;;;;;9.68;9.23;;;;;;;;;;5066969;28;20029;-63
2022/12/12 01:58:39;;;;;;;9.98;9.48;;;;;;;;;;5059191;28;20479;-63
2022/12/12 02:01:05;;;;;;;10.20;9.70;;;;;;;;;;5063465;28;20028;-63
2022/12/12 02:03:30;;;;;;;9.90;9.40;;;;;;;;;;5060679;28;20033;-63
2022/12/12 02:05:58;;;;;;;10.35;9.85;;;;;;;;;;5062001;28;20033;-63
2022/12/12 02:08:24;;;;;;;10.52;10.00;;;;;;;;;;5053571;28;20021;-63
2022/12/12 02:10:50;;;;;;;11.20;10.60;;;;;;;;;;5059375;28;20094;-63
2022/12/12 02:13:17;;;;;;;10.07;9.57;;;;;;;;;;5059775;28;20480;-63
2022/12/12 02:16:01;;;;;;;10.35;9.85;;;;;;;;;;5063160;28;20072;-64
2022/12/12 02:18:30;;;;;;;10.23;9.73;;;;;;;;;;5064278;28;20039;-62
2022/12/12 02:21:19;;;;;;;10.07;9.57;;;;;;;;;;5059248;28;20028;-62
2022/12/12 02:23:44;;;;;;;10.13;9.63;;;;;;;;;;5062785;28;20100;-63
2022/12/12 02:26:28;;;;;;;9.98;9.48;;;;;;;;;;5059235;28;20456;-63
2022/12/12 02:29:12;;;;;;;9.27;8.88;;;;;;;;;;5065349;28;20059;-63
2022/12/12 02:31:37;;;;;;;9.10;8.70;;;;;;;;;;5064535;28;20491;-63
2022/12/12 02:34:05;;;;;;;10.10;9.60;;;;;;;;;;5061720;28;20021;-63
2022/12/12 02:36:49;;;;;;;9.40;9.00;;;;;;;;;;5066765;28;20020;-63
2022/12/12 02:39:15;;;;;;;9.27;8.88;;;;;;;;;;5058549;28;20380;-63
2022/12/12 02:41:42;;;;;;;9.23;8.82;;;;;;;;;;5063930;28;20020;-63
2022/12/12 02:44:18;;;;;;;9.55;9.13;;;;;;;;;;5064402;28;20012;-63
2022/12/12 02:46:54;;;;;;;9.20;8.80;;;;;;;;;;5062761;28;20024;-63
2022/12/12 02:49:20;;;;;;;9.15;8.75;;;;;;;;;;5056907;28;20032;-62
2022/12/12 02:51:46;;;;;;;9.70;9.20;;;;;;;;;;5065841;28;20494;-62
2022/12/12 02:54:13;;;;;;;10.23;9.73;;;;;;;;;;5059339;28;20439;-63
2022/12/12 02:56:41;;;;;;;9.40;9.00;;;;;;;;;;5051142;28;20017;-63
2022/12/12 02:59:08;;;;;;;9.30;8.90;;;;;;;;;;5055553;28;20051;-62
2022/12/12 03:01:43;;;;;;;9.48;9.07;;;;;;;;;;5062631;28;20063;-62
2022/12/12 03:10:08;;;;;;;10.13;9.63;;;;;;;;;;5058104;28;20498;-65
2022/12/12 03:12:33;;;;;;;9.40;9.00;;;;;;;;;;5056718;28;20078;-62
2022/12/12 03:14:59;;;;;;;10.10;9.60;;;;;;;;;;5059657;28;20499;-63
2022/12/12 03:17:44;;;;;;;10.07;9.57;;;;;;;;;;5062795;28;20033;-61
2022/12/12 03:20:14;;;;;;;10.10;9.60;;;;;;;;;;5058740;28;20067;-63
2022/12/12 03:22:39;;;;;;;9.40;9.00;;;;;;;;;;5060604;28;20013;-63
2022/12/12 03:25:10;;;;;;;10.15;9.65;;;;;;;;;;5060114;28;20360;-63
2022/12/12 03:27:54;;;;;;;9.40;9.00;;;;;;;;;;5062728;28;20025;-64
2022/12/12 03:30:20;;;;;;;10.50;9.98;;;;;;;;;;5061189;28;20030;-62
2022/12/12 03:32:49;;;;;;;9.25;8.85;;;;;;;;;;5067671;28;20420;-63
2022/12/12 03:35:53;;;;;;;9.30;8.90;;;;;;;;;;5056399;28;20092;-62
2022/12/12 03:38:21;;;;;;;9.80;9.30;;;;;;;;;;5018173;28;20030;-62
2022/12/12 03:40:48;;;;;;;9.52;9.07;;;;;;;;;;5017030;28;20022;-62
2022/12/12 03:43:15;;;;;;;9.82;9.32;;;;;;;;;;5031540;28;20072;-62
2022/12/12 03:45:41;;;;;;;9.88;9.38;;;;;;;;;;5056749;28;20408;-62
2022/12/12 03:48:16;;;;;;;9.40;9.00;;;;;;;;;;5060888;28;20024;-61
2022/12/12 03:50:43;;;;;;;9.32;8.93;;;;;;;;;;5054303;28;20032;-62
2022/12/12 03:53:10;;;;;;;9.02;8.63;;;;;;;;;;5057362;28;20073;-62
2022/12/12 03:55:46;;;;;;;10.13;9.63;;;;;;;;;;5057977;28;20031;-62
2022/12/12 03:58:31;;;;;;;9.98;9.48;;;;;;;;;;5062770;28;20067;-63
2022/12/12 04:00:57;;;;;;;9.90;9.40;;;;;;;;;;5060283;28;20127;-63
2022/12/12 04:03:35;;;;;;;10.65;10.15;;;;;;;;;;5058214;28;20142;-62
2022/12/12 04:14:31;;;;;;;10.30;9.80;;;;;;;;;;5065375;28;20124;-63
2022/12/12 04:16:59;;;;;;;10.27;9.77;;;;;;;;;;5061718;28;20036;-63
2022/12/12 04:23:22;;;;;;;9.88;9.45;;;;;;;;;;5065552;28;20051;-63
2022/12/12 04:25:25;;;;;;;9.18;8.77;;;;;;;;;;5053555;28;20036;-62
2022/12/12 04:27:53;;;;;;;10.50;9.93;;;;;;;;;;5057098;28;20064;-61
2022/12/12 04:30:18;;;;;;;9.63;9.15;;;;;;;;;;5051871;28;20078;-62
2022/12/12 04:32:55;;;;;;;9.70;9.20;;;;;;;;;;5063568;28;20022;-62
2022/12/12 04:35:28;;;;;;;9.65;9.15;;;;;;;;;;5059252;28;20025;-63
2022/12/12 04:37:54;;;;;;;10.00;9.50;;;;;;;;;;5054520;28;20047;-62
2022/12/12 04:40:30;;;;;;;9.85;9.38;;;;;;;;;;5059953;28;20016;-61
2022/12/12 04:42:58;;;;;;;9.77;9.27;;;;;;;;;;5061918;28;20024;-62
2022/12/12 04:45:26;;;;;;;10.52;10.02;;;;;;;;;;5056369;28;20016;-62
2022/12/12 04:47:52;;;;;;;10.48;9.90;;;;;;;;;;5048170;28;20569;-61
2022/12/12 04:50:18;;;;;;;10.00;9.50;;;;;;;;;;5048571;28;20016;-61
2022/12/12 04:52:44;;;;;;;10.30;9.80;;;;;;;;;;5051065;28;20428;-62
2022/12/12 04:55:38;;;;;;;10.10;9.60;;;;;;;;;;5054723;28;20021;-62
2022/12/12 04:58:04;;;;;;;9.57;9.13;;;;;;;;;;5049700;28;20029;-62
2022/12/12 05:00:34;;;;;;;9.60;9.20;;;;;;;;;;5055193;28;20411;-63
2022/12/12 05:03:08;;;;;;;10.10;9.60;;;;;;;;;;5049309;28;20083;-63
2022/12/12 05:05:37;;;;;;;10.05;9.55;;;;;;;;;;5052677;28;20024;-63
2022/12/12 05:08:26;;;;;;;10.15;9.65;;;;;;;;;;5053290;28;20470;-63
2022/12/12 05:10:54;;;;;;;10.77;10.18;;;;;;;;;;5054864;28;20029;-62
2022/12/12 05:13:22;;;;;;;10.30;9.80;;;;;;;;;;5057975;28;20029;-63
2022/12/12 05:15:48;;;;;;;11.80;11.10;;;;;;;;;;5050699;28;20079;-61
2022/12/12 05:18:13;;;;;;;10.55;10.05;;;;;;;;;;5059551;28;20024;-62
2022/12/12 05:20:39;;;;;;;10.55;10.05;;;;;;;;;;5055814;28;20094;-62
2022/12/12 05:23:04;;;;;;;10.50;10.00;;;;;;;;;;5055537;28;20044;-61
2022/12/12 05:25:29;;;;;;;11.00;10.40;;;;;;;;;;5058648;28;20025;-63
2022/12/12 05:27:55;;;;;;;10.90;10.30;;;;;;;;;;5056034;28;20379;-62
2022/12/12 05:30:20;;;;;;;10.57;10.02;;;;;;;;;;5058240;28;20021;-64
2022/12/12 05:32:45;;;;;;;10.20;9.70;;;;;;;;;;5058540;28;20434;-62
2022/12/12 05:35:11;;;;;;;10.55;10.02;;;;;;;;;;5063473;28;20016;-63
2022/12/12 05:37:36;;;;;;;11.52;10.93;;;;;;;;;;5066374;28;20597;-63
2022/12/12 05:40:02;;;;;;;10.65;10.10;;;;;;;;;;5062330;28;20020;-62
2022/12/12 05:42:27;;;;;;;10.50;9.95;;;;;;;;;;5063714;28;20025;-63
2022/12/12 05:44:53;;;;;;;10.70;10.13;;;;;;;;;;5056610;28;20020;-62
2022/12/12 05:47:18;;;;;;;9.80;9.30;;;;;;;;;;5062375;28;20021;-62
2022/12/12 05:49:44;;;;;;;11.07;10.48;;;;;;;;;;5067606;28;20056;-63
2022/12/12 05:52:09;;;;;;;9.57;9.10;;;;;;;;;;5063545;28;20419;-63
2022/12/12 05:54:34;;;;;;;10.60;10.02;;;;;;;;;;5062328;28;20509;-64
2022/12/12 05:57:00;;;;;;;10.18;9.68;;;;;;;;;;5065129;28;20029;-63
2022/12/12 05:59:25;;;;;;;10.10;9.60;;;;;;;;;;5063019;28;20032;-64
2022/12/12 06:01:51;;;;;;;10.80;10.20;;;;;;;;;;5052861;28;20071;-63
2022/12/12 06:04:16;;;;;;;10.60;10.02;;;;;;;;;;5065219;28;20017;-63
2022/12/12 06:06:41;;;;;;;11.00;10.40;;;;;;;;;;5061007;28;20017;-62
2022/12/12 06:09:07;;;;;;;11.57;10.88;;;;;;;;;;5064782;28;20067;-62
2022/12/12 06:11:32;;;;;;;9.98;9.48;;;;;;;;;;5059819;28;20531;-61
2022/12/12 06:13:57;;;;;;;9.80;9.30;;;;;;;;;;5064049;28;20048;-63
2022/12/12 06:16:23;;;;;;;9.77;9.27;;;;;;;;;;5060235;28;20025;-60
2022/12/12 06:18:52;;;;;;;10.07;9.57;;;;;;;;;;5044255;28;20051;-63
2022/12/12 06:21:17;;;;;;;9.85;9.35;;;;;;;;;;5055919;28;20037;-62
2022/12/12 06:23:43;;;;;;;9.55;9.05;;;;;;;;;;5058311;28;20021;-62
2022/12/12 06:26:09;;;;;;;9.68;9.18;;;;;;;;;;5058487;28;20017;-62
2022/12/12 06:28:35;;;;;;;9.88;9.38;;;;;;;;;;5061822;28;20614;-62
2022/12/12 06:31:01;;;;;;;9.75;9.25;;;;;;;;;;5063708;28;20116;-62
2022/12/12 06:33:26;;;;;;;8.88;8.48;;;;;;;;;;5057330;28;20547;-62
2022/12/12 06:36:03;;;;;;;9.30;8.90;;;;;;;;;;5058677;28;20499;-62
2022/12/12 06:38:28;;;;;;;8.90;8.50;;;;;;;;;;5050306;28;20028;-62
2022/12/12 06:40:54;;;;;;;9.90;9.40;;;;;;;;;;5049742;28;20033;-64
2022/12/12 06:43:19;;;;;;;9.88;9.38;;;;;;;;;;5054547;28;20088;-63
2022/12/12 06:45:44;;;;;;;9.70;9.27;;;;;;;;;;5056371;28;20017;-62
2022/12/12 06:48:10;;;;;;;9.20;8.80;;;;;;;;;;5057077;28;20020;-63
2022/12/12 06:50:38;;;;;;;9.35;8.95;;;;;;;;;;5052111;28;20021;-63
2022/12/12 06:53:03;;;;;;;10.63;10.13;;;;;;;;;;5051200;28;20035;-63
2022/12/12 06:55:29;;;;;;;9.75;9.35;;;;;;;;;;5050390;28;20391;-62
2022/12/12 06:57:54;;;;;;;10.60;10.10;;;;;;;;;;5054899;28;20024;-62
2022/12/12 07:00:19;;;;;;;10.25;9.75;;;;;;;;;;5054005;28;20487;-63
2022/12/12 07:02:45;;;;;;;9.98;9.57;;;;;;;;;;5047772;28;20139;-65
2022/12/12 07:05:10;;;;;;;10.80;10.30;;;;;;;;;;5051506;28;20105;-64
2022/12/12 07:07:35;;;;;;;10.45;9.95;;;;;;;;;;5057783;28;20086;-64
2022/12/12 07:10:00;;;;;;;11.68;11.07;;;;;;;;;;5054577;28;20396;-63
2022/12/12 07:12:26;;;;;;;10.63;10.13;;;;;;;;;;5059593;28;20025;-65
2022/12/12 07:14:51;;;;;;;10.30;9.80;;;;;;;;;;5056970;28;20079;-63
2022/12/12 07:17:16;;;;;;;10.38;9.88;;;;;;;;;;5055282;28;20549;-64
2022/12/12 07:19:42;;;;;;;10.40;9.90;;;;;;;;;;5052524;28;20546;-63
2022/12/12 07:22:07;;;;;;;10.05;9.57;;;;;;;;;;5054186;28;20213;-64
2022/12/12 07:24:33;;;;;;;11.35;10.75;;;;;;;;;;5053774;28;20055;-63
2022/12/12 07:26:58;;;;;;;10.80;10.30;;;;;;;;;;5051929;28;20039;-63
2022/12/12 07:29:23;;;;;;;10.88;10.38;;;;;;;;;;5052847;28;20025;-63
2022/12/12 07:31:49;;;;;;;11.10;10.52;;;;;;;;;;5046220;28;20021;-63
2022/12/12 07:34:14;;;;;;;11.60;11.00;;;;;;;;;;5051569;28;20021;-62
2022/12/12 07:36:39;;;;;;;10.00;9.52;;;;;;;;;;5053872;28;20560;-63
2022/12/12 07:39:04;;;;;;;10.43;9.93;;;;;;;;;;5052438;28;20024;-63
2022/12/12 07:41:30;;;;;;;10.90;10.30;;;;;;;;;;5053597;28;20041;-63
2022/12/12 07:43:55;;;;;;;10.50;10.00;;;;;;;;;;5048296;28;20709;-63
2022/12/12 07:46:22;;;;;;;10.95;10.35;;;;;;;;;;5051725;28;20013;-64
2022/12/12 07:48:47;;;;;;;10.07;9.57;;;;;;;;;;5055532;28;20356;-64
2022/12/12 07:51:13;;;;;;;9.60;9.20;;;;;;;;;;5054673;28;20031;-63
2022/12/12 07:53:39;;;;;;;10.30;9.80;;;;;;;;;;5053635;28;20028;-63
2022/12/12 07:56:06;;;;;;;11.23;10.63;;;;;;;;;;5052732;28;20032;-64
2022/12/12 07:58:31;;;;;;;10.00;9.50;;;;;;;;;;5049511;28;20017;-63
2022/12/12 08:00:57;;;;;;;9.65;9.15;;;;;;;;;;5050946;28;20028;-63
2022/12/12 08:03:22;;;;;;;9.65;9.15;;;;;;;;;;5056948;28;20349;-63
2022/12/12 08:05:47;;;;;;;8.90;8.50;;;;;;;;;;5054962;28;20021;-64
2022/12/12 08:08:14;;;;;;;10.45;9.95;;;;;;;;;;5055186;28;20020;-62
2022/12/12 08:10:40;;;;;;;11.07;10.48;;;;;;;;;;5045104;28;20083;-64
2022/12/12 08:13:05;;;;;;;9.50;9.10;;;;;;;;;;5056199;28;20431;-63
2022/12/12 08:15:31;;;;;;;10.02;9.52;;;;;;;;;;5049299;28;20048;-62
2022/12/12 08:17:56;;;;;;;10.23;9.73;;;;;;;;;;5047571;28;20021;-62
2022/12/12 08:20:21;;;;;;;9.45;9.05;;;;;;;;;;5051250;28;20081;-63
2022/12/12 08:22:47;;;;;;;9.30;8.90;;;;;;;;;;5052884;28;20384;-63
2022/12/12 08:25:12;;;;;;;9.55;9.15;;;;;;;;;;5049185;28;20012;-64
2022/12/12 08:27:38;;;;;;;9.88;9.43;;;;;;;;;;5054549;28;20480;-63
2022/12/12 08:30:03;;;;;;;10.20;9.70;;;;;;;;;;5048822;28;20056;-64
2022/12/12 08:32:29;;;;;;;9.57;9.18;;;;;;;;;;5055147;28;20360;-63
2022/12/12 08:34:55;;;;;;;10.95;10.45;;;;;;;;;;5051973;28;20418;-63
2022/12/12 08:37:20;;;;;;;10.25;9.75;;;;;;;;;;5051314;28;20031;-64
2022/12/12 08:39:45;;;;;;;9.98;9.57;;;;;;;;;;5054873;28;20021;-63
2022/12/12 08:42:12;;;;;;;10.68;10.18;;;;;;;;;;5048780;28;20021;-63
2022/12/12 08:44:37;;;;;;;10.40;9.90;;;;;;;;;;5051080;28;20025;-62
2022/12/12 08:47:02;;;;;;;10.75;10.25;;;;;;;;;;5048705;28;20526;-63
2022/12/12 08:49:27;;;;;;;10.55;10.05;;;;;;;;;;5050929;28;20103;-62
2022/12/12 08:51:53;;;;;;;11.27;10.77;;;;;;;;;;5045739;28;20468;-62
2022/12/12 08:54:19;;;;;;;10.52;10.02;;;;;;;;;;5051282;28;20052;-63
2022/12/12 08:56:44;;;;;;;9.80;9.40;;;;;;;;;;5052488;28;20017;-63
2022/12/12 08:59:09;;;;;;;10.35;9.85;;;;;;;;;;5049501;28;20021;-63
2022/12/12 09:01:35;;;;;;;10.05;9.65;;;;;;;;;;5050686;28;20021;-63
2022/12/12 09:04:00;;;;;;;10.40;9.90;;;;;;;;;;5057204;28;20043;-63
2022/12/12 09:06:26;;;;;;;10.07;9.68;;;;;;;;;;5053392;28;20021;-64
2022/12/12 09:08:51;;;;;;;10.93;10.43;;;;;;;;;;5053827;28;20094;-63
2022/12/12 09:11:17;;;;;;;10.70;10.20;;;;;;;;;;5055453;28;20029;-63
2022/12/12 09:13:43;;;;;;;10.70;10.20;;;;;;;;;;5054944;28;20041;-64
2022/12/12 09:16:08;;;;;;;11.40;10.90;;;;;;;;;;5050505;28;20059;-62
2022/12/12 09:18:34;;;;;;;10.70;10.20;;;;;;;;;;5055641;28;20419;-61
2022/12/12 09:21:00;;;;;;;10.90;10.40;;;;;;;;;;5052043;28;20150;-63
2022/12/12 09:23:26;;;;;;;11.10;10.60;;;;;;;;;;5055432;28;20085;-65
2022/12/12 09:25:52;;;;;;;10.88;10.38;;;;;;;;;;5054018;28;20028;-63
2022/12/12 09:28:18;;;;;;;10.70;10.20;;;;;;;;;;5054743;28;20017;-64
2022/12/12 09:30:44;;;;;;;10.40;9.90;;;;;;;;;;5057575;28;20104;-63
2022/12/12 09:33:09;;;;;;;10.98;10.48;;;;;;;;;;5049388;28;20032;-64
2022/12/12 09:35:35;;;;;;;10.50;10.00;;;;;;;;;;5061248;28;20021;-64
2022/12/12 09:38:00;;;;;;;11.98;11.38;;;;;;;;;;5050966;28;20491;-63
2022/12/12 09:40:49;;;;;;;11.38;10.82;;;;;;;;;;5055519;28;20020;-64
2022/12/12 09:43:15;;;;;;;10.48;9.98;;;;;;;;;;5032444;28;20033;-63
2022/12/12 09:45:41;;;;;;;10.95;10.45;;;;;;;;;;5059815;28;20078;-63
2022/12/12 09:48:06;;;;;;;10.45;9.95;;;;;;;;;;5055858;28;20768;-64
2022/12/12 09:50:34;;;;;;;10.93;10.43;;;;;;;;;;5058131;28;20021;-63
2022/12/12 09:53:10;;;;;;;10.57;10.07;;;;;;;;;;5060115;28;20096;-62
2022/12/12 09:55:39;;;;;;;11.05;10.45;;;;;;;;;;5055658;28;20025;-63
2022/12/12 09:58:07;;;;;;;11.88;11.25;;;;;;;;;;5052124;28;20025;-63
2022/12/12 10:00:35;;;;;;;10.23;9.73;;;;;;;;;;5051217;28;20020;-63
2022/12/12 10:03:09;;;;;;;10.90;10.38;;;;;;;;;;5050343;28;20338;-63
2022/12/12 10:05:34;;;;;;;11.45;10.85;;;;;;;;;;5049920;28;20103;-64
2022/12/12 10:08:02;;;;;;;11.30;10.70;;;;;;;;;;5048470;28;20535;-64
2022/12/12 10:10:31;;;;;;;10.60;10.10;;;;;;;;;;5051813;28;20032;-62
2022/12/12 10:12:57;;;;;;;11.63;11.02;;;;;;;;;;5054905;28;20050;-62
2022/12/12 10:15:22;;;;;;;11.07;10.48;;;;;;;;;;5060805;28;20448;-67
2022/12/12 10:17:48;;;;;;;11.00;10.40;;;;;;;;;;5042650;28;20024;-63
2022/12/12 10:20:16;;;;;;;10.35;9.85;;;;;;;;;;5051745;28;20043;-64
2022/12/12 10:22:47;;;;;;;11.70;11.10;;;;;;;;;;5054624;28;20104;-64
2022/12/12 10:25:18;;;;;;;10.32;9.82;;;;;;;;;;5051312;28;20017;-61
2022/12/12 10:27:43;;;;;;;10.15;9.65;;;;;;;;;;5048890;28;20067;-62
2022/12/12 10:30:14;;;;;;;10.90;10.30;;;;;;;;;;5051994;28;20024;-63
2022/12/12 10:32:42;;;;;;;10.15;9.65;;;;;;;;;;5050716;28;20094;-63
2022/12/12 10:35:16;;;;;;;10.88;10.32;;;;;;;;;;5052822;28;20127;-63
2022/12/12 10:37:41;;;;;;;9.60;9.20;;;;;;;;;;5048837;28;20032;-65
2022/12/12 10:40:21;;;;;;;10.27;9.77;;;;;;;;;;5048495;28;20029;-64
2022/12/12 10:42:53;;;;;;;10.57;10.07;;;;;;;;;;5058753;28;20048;-64
2022/12/12 10:45:18;;;;;;;10.15;9.65;;;;;;;;;;5050044;28;20040;-64
2022/12/12 10:47:44;;;;;;;10.75;10.20;;;;;;;;;;5049533;28;20024;-63
2022/12/12 10:50:09;;;;;;;10.18;9.68;;;;;;;;;;5053513;28;20024;-63
2022/12/12 10:52:35;;;;;;;9.95;9.45;;;;;;;;;;5050342;28;20140;-62
2022/12/12 10:55:00;;;;;;;11.20;10.60;;;;;;;;;;5053802;28;20055;-63
2022/12/12 10:57:33;;;;;;;10.10;9.60;;;;;;;;;;5051540;28;20471;-63
2022/12/12 10:59:58;;;;;;;11.63;10.95;;;;;;;;;;5049999;28;20116;-63
2022/12/12 11:02:27;;;;;;;10.23;9.73;;;;;;;;;;5056160;28;20112;-62
2022/12/12 11:05:01;;;;;;;10.77;10.18;;;;;;;;;;5053782;28;20043;-64
2022/12/12 11:07:27;;;;;;;10.90;10.30;;;;;;;;;;5052994;28;20392;-63
2022/12/12 11:09:54;;;;;;;10.65;10.07;;;;;;;;;;5049777;28;20044;-62
2022/12/12 11:12:19;;;;;;;9.85;9.35;;;;;;;;;;5050868;28;20047;-63
2022/12/12 11:14:49;;;;;;;10.35;9.85;;;;;;;;;;5054565;28;20141;-63
2022/12/12 11:17:19;;;;;;;10.38;9.88;;;;;;;;;;5052085;28;20120;-64
2022/12/12 11:19:45;;;;;;;10.88;10.30;;;;;;;;;;5055067;28;20480;-63
2022/12/12 11:22:11;;;;;;;9.77;9.30;;;;;;;;;;5050725;28;20013;-65
2022/12/12 11:24:38;;;;;;;10.02;9.52;;;;;;;;;;5050132;28;20430;-63
2022/12/12 11:27:05;;;;;;;9.93;9.43;;;;;;;;;;5051153;28;20029;-65
2022/12/12 11:29:39;;;;;;;9.30;8.90;;;;;;;;;;5053379;28;20013;-65
2022/12/12 11:32:04;;;;;;;;;;;;;;;;;;5053566;28;20017;-64
2022/12/12 11:34:31;;;;;;;9.20;8.80;;;;;;;;;;5053420;28;19909;-64
2022/12/12 11:36:57;;;;;;;10.73;10.13;;;;;;;;;;5048857;28;20431;-64
2022/12/12 11:39:27;;;;;;;10.48;9.98;;;;;;;;;;5049363;28;20472;-64
2022/12/12 11:42:15;;;;;;;12.07;11.38;;;;;;;;;;5051751;28;20031;-65
2022/12/12 11:44:42;;;;;;;10.32;9.82;;;;;;;;;;5049566;28;20021;-67
2022/12/12 11:47:37;;;;;;;10.85;10.25;;;;;;;;;;5056901;28;20027;-64
2022/12/12 11:50:02;;;;;;;;;;;;;;;;;;5052830;28;20044;-66
2022/12/12 11:52:31;;;;;;;10.20;9.70;;;;;;;;;;5050354;28;19951;-65
2022/12/12 11:54:57;;;;;;;10.95;10.35;;;;;;;;;;5050185;28;20033;-65
2022/12/12 11:57:41;;;;;;;10.15;9.65;;;;;;;;;;5053410;28;20094;-66
2022/12/12 12:00:13;;;;;;;10.77;10.18;;;;;;;;;;5048259;28;20072;-65
2022/12/12 12:03:08;;;;;;;10.30;9.80;;;;;;;;;;5048561;28;20025;-64
2022/12/12 12:05:36;;;;;;;10.38;9.88;;;;;;;;;;5028132;28;20486;-65
2022/12/12 12:08:10;;;;;;;11.38;10.77;;;;;;;;;;5054514;28;20016;-65
2022/12/12 12:10:54;;;;;;;10.15;9.65;;;;;;;;;;5050197;28;20027;-64
2022/12/12 12:13:19;;;;;;;10.07;9.57;;;;;;;;;;5049889;28;20119;-64
2022/12/12 12:15:48;;;;;;;11.05;10.45;;;;;;;;;;5047305;28;20075;-66
2022/12/12 12:18:13;;;;;;;10.88;10.30;;;;;;;;;;5045558;28;20051;-65
2022/12/12 12:20:54;;;;;;;12.07;11.38;;;;;;;;;;5049268;28;20025;-67
2022/12/12 12:23:36;;;;;;;10.65;10.10;;;;;;;;;;5049888;28;20016;-68
2022/12/12 12:26:09;;;;;;;11.13;10.48;;;;;;;;;;5047170;28;20048;-65
2022/12/12 12:28:34;;;;;;;10.48;9.95;;;;;;;;;;5053314;28;20092;-66
2022/12/12 12:31:17;;;;;;;9.88;9.38;;;;;;;;;;5051094;28;20100;-67
2022/12/12 12:33:48;;;;;;;10.07;9.57;;;;;;;;;;5052948;28;20490;-70
2022/12/12 12:36:14;;;;;;;9.90;9.40;;;;;;;;;;5048572;28;20395;-69
2022/12/12 12:38:51;;;;;;;10.75;10.23;;;;;;;;;;5051879;28;20028;-71
2022/12/12 12:41:16;;;;;;;10.32;9.82;;;;;;;;;;5052112;28;20035;-72
2022/12/12 12:43:47;;;;;;;11.02;10.43;;;;;;;;;;5046441;28;20091;-65
2022/12/12 12:46:22;;;;;;;10.52;10.02;;;;;;;;;;5050523;28;20045;-65
2022/12/12 12:48:49;;;;;;;11.57;10.95;;;;;;;;;;5047919;28;20028;-65
2022/12/12 12:51:14;;;;;;;10.35;9.85;;;;;;;;;;5049142;28;20078;-66
2022/12/12 12:54:03;;;;;;;10.73;10.13;;;;;;;;;;5051138;28;20468;-65
2022/12/12 12:57:04;;;;;;;10.02;9.52;;;;;;;;;;5050069;28;20107;-65
2022/12/12 12:59:35;;;;;;;10.15;9.65;;;;;;;;;;5025276;28;20045;-64
2022/12/12 13:02:10;;;;;;;10.10;9.60;;;;;;;;;;5042440;28;20033;-64
2022/12/12 13:04:40;;;;;;;10.82;10.23;;;;;;;;;;5051457;28;20408;-66
2022/12/12 13:07:12;;;;;;;10.85;10.25;;;;;;;;;;5052165;28;20036;-66
2022/12/12 13:09:47;;;;;;;10.57;10.07;;;;;;;;;;5052719;28;20473;-66
2022/12/12 13:12:15;;;;;;;11.35;10.75;;;;;;;;;;5052098;28;20024;-65
2022/12/12 13:14:58;;;;;;;10.40;9.90;;;;;;;;;;5049137;28;20071;-66
2022/12/12 13:17:42;;;;;;;11.27;10.68;;;;;;;;;;5051245;28;20532;-65
2022/12/12 13:20:12;;;;;;;10.65;10.10;;;;;;;;;;5048513;28;20081;-66
2022/12/12 13:22:52;;;;;;;11.93;11.23;;;;;;;;;;5053485;28;20100;-66
2022/12/12 13:25:30;;;;;;;11.00;10.40;;;;;;;;;;5046410;28;20028;-65
2022/12/12 13:27:57;;;;;;;10.88;10.27;;;;;;;;;;5049190;28;20025;-65
2022/12/12 13:30:42;;;;;;;10.40;9.90;;;;;;;;;;5051210;28;20480;-65
2022/12/12 13:33:08;;;;;;;10.88;10.27;;;;;;;;;;5053551;28;20040;-65
2022/12/12 13:35:37;;;;;;;10.18;9.68;;;;;;;;;;5046758;28;20508;-65
2022/12/12 13:38:03;;;;;;;10.13;9.63;;;;;;;;;;5052487;28;20024;-73
2022/12/12 13:40:31;;;;;;;9.60;9.15;;;;;;;;;;5053340;28;20507;-67
2022/12/12 13:43:00;;;;;;;11.05;10.45;;;;;;;;;;5050579;28;20107;-67
2022/12/12 13:45:26;;;;;;;9.60;9.10;;;;;;;;;;5047591;28;20033;-67
2022/12/12 13:47:54;;;;;;;10.85;10.25;;;;;;;;;;5056260;28;20061;-67
2022/12/12 13:50:21;;;;;;;10.45;9.95;;;;;;;;;;5060115;28;20025;-66
2022/12/12 13:53:06;;;;;;;11.48;10.88;;;;;;;;;;5048771;28;20036;-67
2022/12/12 13:55:35;;;;;;;10.30;9.80;;;;;;;;;;5051555;28;20037;-66
2022/12/12 13:58:09;;;;;;;11.80;11.10;;;;;;;;;;5047577;28;20044;-68
2022/12/12 14:00:35;;;;;;;9.77;9.27;;;;;;;;;;5051729;28;20033;-67
2022/12/12 14:03:01;;;;;;;10.73;10.18;;;;;;;;;;5054235;28;20021;-67
2022/12/12 14:05:27;;;;;;;12.98;12.18;;;;;;;;;;5049440;28;20033;-67
2022/12/12 14:07:59;;;;;;;10.30;9.80;;;;;;;;;;5054602;28;20143;-67
2022/12/12 14:10:30;;;;;;;11.57;10.93;;;;;;;;;;5054180;28;20029;-68
2022/12/12 14:12:56;;;;;;;11.18;10.57;;;;;;;;;;5053337;28;20033;-66
2022/12/12 14:15:30;;;;;;;12.15;11.45;;;;;;;;;;5046221;28;20064;-65
2022/12/12 14:17:59;;;;;;;10.90;10.30;;;;;;;;;;5052860;28;20366;-65
2022/12/12 14:20:33;;;;;;;11.35;10.75;;;;;;;;;;5058173;28;20448;-65
2022/12/12 14:22:58;;;;;;;10.43;9.93;;;;;;;;;;5052362;28;20028;-65
2022/12/12 14:25:34;;;;;;;10.30;9.80;;;;;;;;;;5054811;28;20021;-64
2022/12/12 14:28:19;;;;;;;10.45;9.95;;;;;;;;;;5049283;28;20025;-66
2022/12/12 14:30:47;;;;;;;10.05;9.55;;;;;;;;;;5056393;28;20109;-65
2022/12/12 14:33:15;;;;;;;11.23;10.63;;;;;;;;;;5042393;28;20116;-66
2022/12/12 14:36:00;;;;;;;11.32;10.73;;;;;;;;;;5052357;28;20025;-66
2022/12/12 14:38:26;;;;;;;10.75;10.15;;;;;;;;;;5047232;28;20025;-66
2022/12/12 14:40:53;;;;;;;10.77;10.20;;;;;;;;;;5050034;28;20522;-66
2022/12/12 14:43:23;;;;;;;10.13;9.63;;;;;;;;;;5051127;28;20404;-67
2022/12/12 14:45:49;;;;;;;11.45;10.82;;;;;;;;;;5048948;28;20024;-65
2022/12/12 14:48:15;;;;;;;10.80;10.20;;;;;;;;;;5045686;28;20017;-65
2022/12/12 14:51:04;;;;;;;10.85;10.25;;;;;;;;;;5049638;28;20029;-66
2022/12/12 14:53:36;;;;;;;11.63;10.93;;;;;;;;;;5038983;28;20067;-67
2022/12/12 14:56:09;;;;;;;11.13;10.52;;;;;;;;;;5050055;28;20048;-66
2022/12/12 14:58:36;;;;;;;10.63;10.10;;;;;;;;;;5049954;28;20045;-66